Time;durP1;ratioP1;P1;durP2;ratioP2;P2;SDS_P1;SDS_P2;PMS_P1;PMS_P2;Temp;Humidity;BMP_temperature;BMP_pressure;BME280_temperature;BME280_humidity;BME280_pressure;Samples;Min_cycle;Max_cycle;Signal;HPM_P1;HPM_P2
2023/04/20 00:00:55;;;;;;;;;;;;;;;20.05;64.42;101380.45;2279090;77;50635;-76
2023/04/20 00:03:59;;;;;;;;;;;;;;;20.07;64.26;101389.17;2253789;78;51260;-76
2023/04/20 00:07:01;;;;;;;;;;;;;;;20.13;63.98;101386.29;2278859;77;50366;-76
2023/04/20 00:10:03;;;;;;;;;;;;;;;20.23;63.68;101384.22;2289085;77;50374;-77
2023/04/20 00:13:04;;;;;;;;;;;;;;;20.25;63.49;101388.92;2262464;77;51541;-77
2023/04/20 00:16:06;;;;;;;;;;;;;;;20.26;63.42;101389.75;2237868;78;52393;-77
2023/04/20 00:19:08;;;;;;;;;;;;;;;20.23;63.45;101389.08;2238015;78;51534;-76
2023/04/20 00:22:09;;;;;;;;;;;;;;;20.21;63.49;101388.41;2258927;78;50664;-76
2023/04/20 00:25:11;;;;;;;;;;;;;;;20.18;63.59;101385.26;2238905;78;51513;-77
2023/04/20 00:28:12;;;;;;;;;;;;;;;20.14;63.75;101386.61;2222394;80;51553;-78
2023/04/20 00:31:14;;;;;;;;;;;;;;;20.11;64.18;101390.48;2222059;79;51446;-75
2023/04/20 00:34:15;;;;;;;;;;;;;;;20.06;64.37;101379.94;2221747;79;51459;-77
2023/04/20 00:37:17;;;;;;;;;;;;;;;20.07;64.22;101391.03;2222211;78;50258;-77
2023/04/20 00:40:19;;;;;;;;;;;;;;;20.13;64.04;101379.06;2198140;79;51233;-76
2023/04/20 00:43:20;;;;;;;;;;;;;;;20.19;63.66;101378.38;2221227;79;51513;-76
2023/04/20 00:46:22;;;;;;;;;;;;;;;20.20;63.57;101378.70;2258832;78;50784;-77
2023/04/20 00:49:28;;;;;;;;;;;;;;;20.18;63.53;101380.71;2215900;79;50657;-77
2023/04/20 00:52:29;;;;;;;;;;;;;;;;;;2219240;79;52448;-77
2023/04/20 00:55:31;;;;;;;;;;;;;;;20.15;63.72;101374.35;2207260;79;52369;-77
2023/04/20 00:58:33;;;;;;;;;;;;;;;20.11;63.86;101370.33;2259024;78;51503;-77
2023/04/20 01:01:35;;;;;;;;;;;;;;;20.08;64.00;101369.86;2277952;78;50760;-77
2023/04/20 01:04:36;;;;;;;;;;;;;;;20.04;64.39;101364.01;2258997;78;50418;-76
2023/04/20 01:07:38;;;;;;;;;;;;;;;20.00;64.29;101362.16;2197711;79;51230;-77
2023/04/20 01:10:39;;;;;;;;;;;;;;;20.05;64.18;101361.64;2238226;78;50621;-77
2023/04/20 01:13:41;;;;;;;;;;;;;;;20.10;63.88;101365.98;2278086;78;51416;-76
2023/04/20 01:16:43;;;;;;;;;;;;;;;20.18;63.61;101363.25;2259244;78;50350;-76
2023/04/20 01:19:45;;;;;;;;;;;;;;;20.23;63.47;101365.41;2216231;78;51755;-77
2023/04/20 01:22:47;;;;;;;;;;;;;;;20.21;63.47;101362.89;2264182;78;51463;-77
2023/04/20 01:25:49;;;;;;;;;;;;;;;20.21;63.45;101365.58;2241835;78;50458;-76
2023/04/20 01:28:50;;;;;;;;;;;;;;;20.18;63.43;101367.28;2229726;80;50245;-76
2023/04/20 01:31:52;;;;;;;;;;;;;;;20.14;63.46;101367.31;2183809;78;51783;-75
2023/04/20 01:34:54;;;;;;;;;;;;;;;20.11;63.64;101374.36;2240873;78;51333;-76
2023/04/20 01:37:55;;;;;;;;;;;;;;;20.07;63.87;101364.16;2207133;80;51551;-76
2023/04/20 01:40:57;;;;;;;;;;;;;;;20.03;64.24;101360.14;2206992;80;51517;-76
2023/04/20 01:43:59;;;;;;;;;;;;;;;20.05;64.13;101354.92;2225256;78;50786;-76
2023/04/20 01:47:01;;;;;;;;;;;;;;;20.09;63.88;101350.89;2264088;78;50238;-77
2023/04/20 01:50:02;;;;;;;;;;;;;;;20.16;63.51;101345.11;2265915;77;50639;-77
2023/04/20 01:53:04;;;;;;;;;;;;;;;20.19;63.26;101347.47;2265879;77;50286;-77
2023/04/20 01:56:06;;;;;;;;;;;;;;;20.20;63.18;101355.02;2240870;78;51120;-76
2023/04/20 01:59:07;;;;;;;;;;;;;;;20.19;63.15;101351.50;2266039;77;50231;-77
2023/04/20 02:02:09;;;;;;;;;;;;;;;20.16;63.20;101353.17;2241137;78;51370;-76
2023/04/20 02:05:10;;;;;;;;;;;;;;;20.14;63.30;101354.36;2264030;77;50663;-75
2023/04/20 02:08:12;;;;;;;;;;;;;;;20.10;63.48;101352.55;2264140;77;51280;-77
2023/04/20 02:11:13;;;;;;;;;;;;;;;20.07;63.67;101361.48;2289097;77;51496;-77
2023/04/20 02:14:15;;;;;;;;;;;;;;;20.03;64.07;101360.14;2241049;77;51439;-76
2023/04/20 02:17:17;;;;;;;;;;;;;;;20.03;63.96;101360.97;2222331;80;51446;-77
2023/04/20 02:20:23;;;;;;;;;;;;;;;20.07;63.78;101360.97;2224814;79;50075;-77
2023/04/20 02:23:21;;;;;;;;;;;;;;;20.14;63.48;101357.91;2221601;80;22339;-77
2023/04/20 02:26:23;;;;;;;;;;;;;;;20.16;63.37;101362.58;2224793;79;51484;-77
2023/04/20 02:29:24;;;;;;;;;;;;;;;;;;2225096;80;51492;-77
2023/04/20 02:32:25;;;;;;;;;;;;;;;20.16;63.19;101366.61;2225446;79;52465;-77
2023/04/20 02:35:27;;;;;;;;;;;;;;;20.12;63.28;101357.25;2222408;80;50079;-76
2023/04/20 02:38:29;;;;;;;;;;;;;;;20.10;63.40;101363.80;2225086;79;50657;-76
2023/04/20 02:41:30;;;;;;;;;;;;;;;20.07;63.57;101365.00;2225215;79;50038;-77
2023/04/20 02:44:32;;;;;;;;;;;;;;;20.03;63.83;101358.28;2203302;78;51675;-76
2023/04/20 02:47:34;;;;;;;;;;;;;;;19.99;64.11;101359.16;2238284;78;50254;-76
2023/04/20 02:50:37;;;;;;;;;;;;;;;20.01;63.99;101362.51;2277906;78;51524;-76
2023/04/20 02:53:38;;;;;;;;;;;;;;;20.06;63.93;101370.02;2259143;78;50700;-76
2023/04/20 02:56:40;;;;;;;;;;;;;;;20.14;63.54;101368.66;2277519;78;51300;-76
2023/04/20 02:59:42;;;;;;;;;;;;;;;20.20;63.21;101361.73;2238368;78;51542;-77
2023/04/20 03:02:43;;;;;;;;;;;;;;;20.22;63.08;101365.92;2227369;79;50505;-76
2023/04/20 03:05:45;;;;;;;;;;;;;;;20.21;63.07;101364.23;2244565;78;51557;-76
2023/04/20 03:08:46;;;;;;;;;;;;;;;20.20;63.08;101366.59;2281534;77;52641;-76
2023/04/20 03:11:48;;;;;;;;;;;;;;;20.19;63.15;101368.11;2288806;77;50609;-76
2023/04/20 03:14:50;;;;;;;;;;;;;;;20.14;63.20;101359.73;2260603;78;50308;-76
2023/04/20 03:17:52;;;;;;;;;;;;;;;20.09;63.34;101360.29;2289114;77;50430;-77
2023/04/20 03:20:53;;;;;;;;;;;;;;;20.05;63.62;101354.92;2232239;79;51095;-76
2023/04/20 03:23:57;;;;;;;;;;;;;;;20.01;63.87;101357.14;2254915;78;51469;-76
2023/04/20 03:26:58;;;;;;;;;;;;;;;20.04;63.83;101362.66;2245357;78;51621;-76
2023/04/20 03:30:00;;;;;;;;;;;;;;;20.11;63.62;101366.81;2277853;78;51432;-77
2023/04/20 03:33:01;;;;;;;;;;;;;;;20.16;63.30;101372.50;2213836;78;52406;-77
2023/04/20 03:36:04;;;;;;;;;;;;;;;20.18;63.17;101373.16;2240364;78;50374;-77
2023/04/20 03:39:06;;;;;;;;;;;;;;;20.16;63.14;101374.67;2267100;78;50346;-74
2023/04/20 03:42:10;;;;;;;;;;;;;;;20.15;63.24;101378.38;2219899;78;52418;-77
2023/04/20 03:45:13;;;;;;;;;;;;;;;20.12;63.10;101384.62;2243134;78;22960;-77
2023/04/20 03:48:14;;;;;;;;;;;;;;;20.00;60.13;101382.81;2267065;78;50644;-77
2023/04/20 03:51:16;;;;;;;;;;;;;;;19.94;60.21;101367.41;2266819;78;50756;-76
2023/04/20 03:54:17;;;;;;;;;;;;;;;19.93;60.23;101370.58;2234211;78;51501;-76
2023/04/20 03:57:19;;;;;;;;;;;;;;;19.93;60.58;101375.12;2229660;78;51761;-76
2023/04/20 04:00:21;;;;;;;;;;;;;;;20.00;60.61;101366.19;2243518;78;50403;-76
2023/04/20 04:03:22;;;;;;;;;;;;;;;20.08;60.66;101368.52;2243465;78;50060;-75
2023/04/20 04:06:24;;;;;;;;;;;;;;;20.16;60.67;101371.16;2243254;78;50217;-75
2023/04/20 04:09:25;;;;;;;;;;;;;;;20.26;60.55;101371.77;2219458;78;51103;-76
2023/04/20 04:12:27;;;;;;;;;;;;;;;20.30;60.47;101370.93;2266853;78;50270;-76
2023/04/20 04:15:29;;;;;;;;;;;;;;;20.29;60.56;101374.09;2266585;78;50303;-75
2023/04/20 04:18:31;;;;;;;;;;;;;;;20.27;60.66;101378.84;2243580;78;50048;-75
2023/04/20 04:21:33;;;;;;;;;;;;;;;20.23;60.82;101376.99;2243337;78;52662;-76
2023/04/20 04:24:37;;;;;;;;;;;;;;;20.20;61.15;101389.44;2245394;78;50468;-76
2023/04/20 04:27:38;;;;;;;;;;;;;;;20.15;61.30;101385.61;2240046;77;51573;-76
2023/04/20 04:30:40;;;;;;;;;;;;;;;20.13;61.34;101384.43;2231504;78;51522;-77
2023/04/20 04:33:43;;;;;;;;;;;;;;;20.12;61.57;101392.17;2207026;80;51346;-76
2023/04/20 04:36:45;;;;;;;;;;;;;;;20.14;61.69;101390.16;2231189;78;51533;-76
2023/04/20 04:39:46;;;;;;;;;;;;;;;20.16;61.63;101393.99;2229630;80;51389;-76
2023/04/20 04:42:48;;;;;;;;;;;;;;;20.18;61.52;101398.69;2229499;80;51354;-77
2023/04/20 04:45:50;;;;;;;;;;;;;;;20.17;61.65;101391.14;2206765;78;50964;-77
2023/04/20 04:48:51;;;;;;;;;;;;;;;20.14;61.91;101395.53;2231589;79;51724;-75
2023/04/20 04:51:53;;;;;;;;;;;;;;;20.15;61.70;101408.45;2229921;80;50423;-75
2023/04/20 04:54:54;;;;;;;;;;;;;;;20.10;61.23;101416.20;2219592;78;52403;-73
2023/04/20 04:57:56;;;;;;;;;;;;;;;20.07;61.16;101417.38;2213863;78;51128;-74
2023/04/20 05:00:57;;;;;;;;;;;;;;;20.04;61.01;101419.08;2243867;78;50451;-74
2023/04/20 05:04:00;;;;;;;;;;;;;;;19.99;61.07;101412.88;2267135;78;50338;-74
2023/04/20 05:07:01;;;;;;;;;;;;;;;19.99;61.06;101406.67;2255502;78;51451;-74
2023/04/20 05:10:03;;;;;;;;;;;;;;;20.05;60.92;101401.11;2207594;80;51584;-74
2023/04/20 05:13:05;;;;;;;;;;;;;;;20.10;60.79;101406.80;2210963;79;51471;-75
2023/04/20 05:16:07;;;;;;;;;;;;;;;20.20;60.47;101412.80;2230533;78;49924;-74
2023/04/20 05:19:08;;;;;;;;;;;;;;;20.20;60.36;101412.28;2266195;77;51527;-74
2023/04/20 05:22:10;;;;;;;;;;;;;;;20.16;60.49;101421.70;2240882;78;51334;-76
2023/04/20 05:25:11;;;;;;;;;;;;;;;20.16;60.49;101421.70;2252348;78;51427;-77
2023/04/20 05:28:13;;;;;;;;;;;;;;;20.11;60.61;101420.03;2232132;77;51537;-76
2023/04/20 05:31:15;;;;;;;;;;;;;;;20.07;60.83;101410.67;2207045;80;51425;-76
2023/04/20 05:34:16;;;;;;;;;;;;;;;20.05;61.10;101414.03;2206919;80;51648;-77
2023/04/20 05:37:18;;;;;;;;;;;;;;;20.01;61.24;101415.38;2207071;79;51452;-76
2023/04/20 05:40:19;;;;;;;;;;;;;;;20.00;61.51;101432.00;2229805;80;50623;-77
2023/04/20 05:43:21;;;;;;;;;;;;;;;20.06;61.46;101429.63;2229709;80;51365;-76
2023/04/20 05:46:22;;;;;;;;;;;;;;;20.13;61.26;101427.42;2206767;78;51184;-77
2023/04/20 05:49:25;;;;;;;;;;;;;;;20.19;61.13;101440.18;2207437;80;50279;-75
2023/04/20 05:52:26;;;;;;;;;;;;;;;20.21;61.17;101438.64;2208408;80;51584;-77
2023/04/20 05:55:28;;;;;;;;;;;;;;;20.16;61.36;101425.72;2251490;78;50787;-76
2023/04/20 05:58:30;;;;;;;;;;;;;;;20.16;61.36;101433.78;2185591;80;50553;-77
2023/04/20 06:01:32;;;;;;;;;;;;;;;20.16;61.59;101438.33;2242130;79;50759;-76
2023/04/20 06:04:35;;;;;;;;;;;;;;;20.08;61.84;101435.17;2238209;79;50664;-77
2023/04/20 06:07:36;;;;;;;;;;;;;;;20.09;61.84;101437.34;2244372;79;51548;-76
2023/04/20 06:10:38;;;;;;;;;;;;;;;20.04;62.15;101448.63;2221532;79;52490;-77
2023/04/20 06:13:40;;;;;;;;;;;;;;;20.03;62.30;101447.45;2202951;80;51493;-76
2023/04/20 06:16:42;;;;;;;;;;;;;;;20.04;62.28;101445.95;2240961;78;50751;-77
2023/04/20 06:19:43;;;;;;;;;;;;;;;20.09;62.24;101448.95;2227922;78;49754;-77
2023/04/20 06:22:45;;;;;;;;;;;;;;;20.13;62.09;101454.80;2233351;79;51679;-77
2023/04/20 06:25:47;;;;;;;;;;;;;;;20.13;62.19;101456.15;2243028;79;51525;-76
2023/04/20 06:28:51;;;;;;;;;;;;;;;20.11;62.20;101449.59;2223623;80;51544;-77
2023/04/20 06:31:52;;;;;;;;;;;;;;;20.04;62.39;101459.38;2222777;78;22402;-77
2023/04/20 06:34:53;;;;;;;;;;;;;;;19.99;62.51;101467.95;2178369;80;51167;-76
2023/04/20 06:37:56;;;;;;;;;;;;;;;19.92;62.70;101461.58;2202068;80;52231;-77
2023/04/20 06:41:00;;;;;;;;;;;;;;;19.90;62.66;101460.08;2202362;80;51590;-76
2023/04/20 06:44:01;;;;;;;;;;;;;;;19.82;62.94;101455.56;2202846;80;22579;-76
2023/04/20 06:47:02;;;;;;;;;;;;;;;19.80;63.08;101461.61;2178938;80;51626;-76
2023/04/20 06:50:08;;;;;;;;;;;;;;;19.82;63.03;101468.99;2202151;80;49971;-76
2023/04/20 06:53:10;;;;;;;;;;;;;;;19.89;63.00;101465.13;2227251;78;22276;-77
2023/04/20 06:56:11;;;;;;;;;;;;;;;19.95;62.88;101460.41;2243374;78;50538;-76
2023/04/20 06:59:16;;;;;;;;;;;;;;;19.98;62.70;101455.51;2221479;79;51131;-76
2023/04/20 07:02:16;;;;;;;;;;;;;;;20.02;62.57;101449.30;2259110;78;22383;-76
2023/04/20 07:05:18;;;;;;;;;;;;;;;20.05;62.47;101444.09;2277460;78;51225;-76
2023/04/20 07:08:19;;;;;;;;;;;;;;;20.03;62.44;101452.31;2258899;78;51662;-76
2023/04/20 07:11:21;;;;;;;;;;;;;;;20.03;62.42;101464.40;2216130;78;51578;-78
2023/04/20 07:14:23;;;;;;;;;;;;;;;20.03;62.43;101465.74;2266626;78;51414;-74
2023/04/20 07:17:26;;;;;;;;;;;;;;;19.99;62.45;101465.77;2266699;78;51496;-75
2023/04/20 07:20:27;;;;;;;;;;;;;;;19.95;62.72;101466.61;2266628;78;51502;-76
2023/04/20 07:23:29;;;;;;;;;;;;;;;19.91;59.86;101475.17;2206544;78;52441;-74
2023/04/20 07:26:31;;;;;;;;;;;;;;;19.78;59.93;101471.67;2254250;78;50799;-75
2023/04/20 07:29:32;;;;;;;;;;;;;;;19.72;60.45;101485.80;2243886;78;51757;-75
2023/04/20 07:32:34;;;;;;;;;;;;;;;19.73;60.68;101484.30;2244514;78;51439;-75
2023/04/20 07:35:36;;;;;;;;;;;;;;;19.73;60.95;101482.09;2269947;78;51672;-75
2023/04/20 07:38:37;;;;;;;;;;;;;;;19.76;61.16;101483.11;2220169;78;49577;-76
2023/04/20 07:41:39;;;;;;;;;;;;;;;19.79;61.26;101486.28;2267127;78;50688;-75
2023/04/20 07:44:40;;;;;;;;;;;;;;;19.82;61.38;101493.67;2267397;78;51510;-75
2023/04/20 07:47:45;;;;;;;;;;;;;;;19.82;61.52;101490.98;2247251;78;51524;-75
2023/04/20 07:50:45;;;;;;;;;;;;;;;19.79;61.65;101488.97;2244312;78;22280;-75
2023/04/20 07:53:47;;;;;;;;;;;;;;;19.78;61.77;101483.28;2254427;78;51561;-74
2023/04/20 07:56:48;;;;;;;;;;;;;;;19.79;61.80;101490.83;2231426;78;51410;-74
2023/04/20 07:59:50;;;;;;;;;;;;;;;19.78;61.83;101494.50;2243417;78;51376;-76
2023/04/20 08:02:52;;;;;;;;;;;;;;;19.72;62.07;101500.56;2243927;78;49626;-75
2023/04/20 08:05:53;;;;;;;;;;;;;;;19.72;62.14;101501.39;2243191;78;51194;-75
2023/04/20 08:08:55;;;;;;;;;;;;;;;19.72;62.22;101499.22;2243216;78;51524;-75
2023/04/20 08:11:56;;;;;;;;;;;;;;;19.75;62.14;101495.67;2266779;78;50485;-76
2023/04/20 08:15:00;;;;;;;;;;;;;;;19.80;62.04;101493.83;2243168;78;49236;-75
2023/04/20 08:18:01;;;;;;;;;;;;;;;19.79;62.09;101493.00;2244152;78;22406;-75
2023/04/20 08:21:03;;;;;;;;;;;;;;;19.81;61.99;101496.88;2243589;78;53937;-75
2023/04/20 08:24:04;;;;;;;;;;;;;;;19.82;62.03;101499.88;2232650;78;51534;-76
2023/04/20 08:27:07;;;;;;;;;;;;;;;19.83;62.06;101492.66;2210965;78;50072;-74
2023/04/20 08:30:09;;;;;;;;;;;;;;;19.82;62.04;101499.88;2183859;80;51581;-76
2023/04/20 08:33:11;;;;;;;;;;;;;;;19.77;62.14;101500.38;2207562;80;50742;-74
2023/04/20 08:36:12;;;;;;;;;;;;;;;19.75;62.15;101502.91;2206860;80;51470;-74
2023/04/20 08:39:14;;;;;;;;;;;;;;;19.74;62.20;101506.09;2183839;80;52386;-73
2023/04/20 08:42:16;;;;;;;;;;;;;;;19.76;62.15;101505.43;2207026;80;50769;-73
2023/04/20 08:45:17;;;;;;;;;;;;;;;19.77;62.14;101503.58;2229271;80;50411;-74
2023/04/20 08:48:20;;;;;;;;;;;;;;;19.78;62.11;101512.81;2229508;78;51546;-75
2023/04/20 08:51:21;;;;;;;;;;;;;;;19.78;62.07;101516.84;2207002;80;52629;-75
2023/04/20 08:54:23;;;;;;;;;;;;;;;19.78;62.10;101518.19;2217768;78;51378;-73
2023/04/20 08:57:25;;;;;;;;;;;;;;;19.74;62.20;101519.52;2252411;78;51515;-74
2023/04/20 09:00:26;;;;;;;;;;;;;;;19.72;62.22;101520.70;2288796;77;50711;-75
2023/04/20 09:03:38;;;;;;;;;;;;;;;19.68;62.38;101521.55;2227860;79;51197;-74
2023/04/20 09:06:41;;;;;;;;;;;;;;;19.63;62.54;101506.42;2256401;78;51580;-76
2023/04/20 09:09:44;;;;;;;;;;;;;;;19.66;62.53;101509.27;2231932;79;52577;-76
2023/04/20 09:12:46;;;;;;;;;;;;;;;19.67;62.54;101507.78;2253071;78;51522;-75
2023/04/20 09:15:48;;;;;;;;;;;;;;;19.68;62.53;101504.58;2231794;79;52352;-77
2023/04/20 09:18:53;;;;;;;;;;;;;;;19.69;62.60;101512.48;2256687;78;51416;-76
2023/04/20 09:21:55;;;;;;;;;;;;;;;19.70;62.59;101510.12;2288927;77;52434;-76
2023/04/20 09:24:57;;;;;;;;;;;;;;;19.75;62.53;101516.33;2269025;77;50840;-76
2023/04/20 09:27:59;;;;;;;;;;;;;;;19.76;62.46;101512.14;2245620;77;52649;-76
2023/04/20 09:31:00;;;;;;;;;;;;;;;19.77;62.41;101507.09;2202032;80;51610;-74
2023/04/20 09:34:02;;;;;;;;;;;;;;;19.76;62.39;101511.31;2225977;79;51479;-75
2023/04/20 09:37:04;;;;;;;;;;;;;;;19.77;62.19;101508.44;2222314;79;50694;-76
2023/04/20 09:40:06;;;;;;;;;;;;;;;19.78;62.11;101509.27;2201993;80;51172;-75
2023/04/20 09:43:12;;;;;;;;;;;;;;;19.76;62.20;101504.59;2222318;80;51461;-75
2023/04/20 09:46:14;;;;;;;;;;;;;;;19.78;62.10;101511.95;2221723;79;51533;-74
2023/04/20 09:49:16;;;;;;;;;;;;;;;19.78;62.02;101510.13;2222375;80;50724;-75
2023/04/20 09:52:18;;;;;;;;;;;;;;;19.83;61.84;101491.31;2202064;80;51483;-75
2023/04/20 09:55:19;;;;;;;;;;;;;;;19.92;61.66;101488.45;2232626;79;50642;-74
2023/04/20 09:58:22;;;;;;;;;;;;;;;20.08;61.22;101488.07;2251990;79;50714;-73
2023/04/20 10:01:24;;;;;;;;;;;;;;;20.15;60.92;101479.66;2256511;78;50536;-72
2023/04/20 10:04:26;;;;;;;;;;;;;;;20.18;60.82;101486.85;2280861;77;52360;-73
2023/04/20 10:07:28;;;;;;;;;;;;;;;20.18;60.74;101490.05;2288517;77;51564;-73
2023/04/20 10:10:30;;;;;;;;;;;;;;;20.16;60.68;101494.24;2260637;78;50418;-73
2023/04/20 10:13:34;;;;;;;;;;;;;;;20.16;60.61;101492.90;2264525;78;50259;-73
2023/04/20 10:16:36;;;;;;;;;;;;;;;20.20;60.57;101486.18;2281300;77;51487;-77
2023/04/20 10:19:44;;;;;;;;;;;;;;;20.21;60.60;101480.30;2245771;77;50202;-77
2023/04/20 10:22:46;;;;;;;;;;;;;;;20.20;60.79;101482.16;2264748;78;51491;-77
2023/04/20 10:25:59;;;;;;;;;;;;;;;20.21;60.84;101485.67;2244188;78;51453;-76
2023/04/20 10:29:01;;;;;;;;;;;;;;;20.20;60.84;101482.16;2233530;78;51763;-76
2023/04/20 10:32:02;;;;;;;;;;;;;;;20.21;60.78;101482.98;2229163;78;51605;-76
2023/04/20 10:35:05;;;;;;;;;;;;;;;20.19;60.85;101485.86;2258515;78;51510;-78
2023/04/20 10:38:07;;;;;;;;;;;;;;;20.16;60.83;101483.49;2229497;78;50468;-78
2023/04/20 10:41:09;;;;;;;;;;;;;;;20.14;60.86;101478.83;2224461;79;52284;-77
2023/04/20 10:44:11;;;;;;;;;;;;;;;20.11;61.02;101476.45;2210489;78;51520;-77
2023/04/20 10:47:13;;;;;;;;;;;;;;;20.11;60.97;101470.25;2229533;78;50773;-78
2023/04/20 10:50:16;;;;;;;;;;;;;;;20.13;60.89;101461.01;2285152;77;51491;-77
2023/04/20 10:53:22;;;;;;;;;;;;;;;20.19;60.76;101458.98;2204304;80;51180;-77
2023/04/20 10:56:24;;;;;;;;;;;;;;;20.21;60.68;101458.80;2228147;79;50746;-77
2023/04/20 10:59:27;;;;;;;;;;;;;;;20.23;60.59;101454.09;2184656;81;51548;-77
2023/04/20 11:02:29;;;;;;;;;;;;;;;20.20;60.58;101451.25;2229504;78;50286;-79
2023/04/20 11:05:31;;;;;;;;;;;;;;;20.20;60.57;101447.73;2258040;78;52483;-78
2023/04/20 11:08:39;;;;;;;;;;;;;;;20.18;60.59;101454.61;2239324;79;51430;-77
2023/04/20 11:11:41;;;;;;;;;;;;;;;20.13;60.63;101444.89;2260826;78;51568;-78
2023/04/20 11:14:56;;;;;;;;;;;;;;;20.11;59.83;101449.59;2232144;79;51533;-76
2023/04/20 11:18:00;;;;;;;;;;;;;;;20.00;55.66;101449.98;2222702;78;52373;-76
2023/04/20 11:21:01;;;;;;;;;;;;;;;19.89;54.92;101447.67;2257170;78;51510;-76
2023/04/20 11:24:03;;;;;;;;;;;;;;;19.81;55.07;101448.53;2240097;78;51540;-78
2023/04/20 11:27:05;;;;;;;;;;;;;;;19.81;55.94;101455.25;2266922;78;50399;-77
2023/04/20 11:30:08;;;;;;;;;;;;;;;19.86;56.61;101456.91;2219415;78;51028;-76
2023/04/20 11:33:10;;;;;;;;;;;;;;;19.88;57.27;101450.00;2266776;78;50816;-77
2023/04/20 11:36:19;;;;;;;;;;;;;;;19.92;57.79;101450.01;2243211;78;50272;-77
2023/04/20 11:39:24;;;;;;;;;;;;;;;19.96;58.34;101445.95;2267056;78;50338;-76
2023/04/20 11:42:26;;;;;;;;;;;;;;;20.00;58.69;101442.75;2219219;78;51205;-73
2023/04/20 11:45:28;;;;;;;;;;;;;;;20.08;59.11;101436.52;2234693;78;51602;-73
2023/04/20 11:48:30;;;;;;;;;;;;;;;20.13;59.45;101432.80;2253043;77;50863;-72
2023/04/20 11:51:32;;;;;;;;;;;;;;;20.18;59.60;101429.08;2288864;77;51582;-72
2023/04/20 11:54:33;;;;;;;;;;;;;;;20.21;59.64;101426.03;2227629;79;52363;-72
2023/04/20 11:57:35;;;;;;;;;;;;;;;20.20;59.76;101421.69;2288897;77;52375;-72
2023/04/20 12:00:37;;;;;;;;;;;;;;;20.21;59.89;101421.17;2288840;77;51401;-72
2023/04/20 12:03:38;;;;;;;;;;;;;;;20.19;59.59;101409.28;2219394;79;51547;-73
2023/04/20 12:06:41;;;;;;;;;;;;;;;20.09;57.96;101415.37;2215193;78;52663;-73
2023/04/20 12:09:43;;;;;;;;;;;;;;;20.04;58.81;101409.68;2288829;77;50657;-72
2023/04/20 12:12:44;;;;;;;;;;;;;;;20.06;59.30;101412.17;2252496;78;50389;-73
2023/04/20 12:15:46;;;;;;;;;;;;;;;20.09;59.56;101414.02;2256552;78;50201;-73
2023/04/20 12:18:48;;;;;;;;;;;;;;;20.12;59.83;101415.02;2222019;78;51707;-73
2023/04/20 12:21:49;;;;;;;;;;;;;;;20.12;60.10;101408.30;2236598;78;49901;-71
2023/04/20 12:24:51;;;;;;;;;;;;;;;20.14;60.34;101410.79;2243974;78;50222;-73
2023/04/20 12:27:52;;;;;;;;;;;;;;;20.16;60.29;101404.23;2256588;78;50650;-72
2023/04/20 12:30:54;;;;;;;;;;;;;;;20.16;60.36;101402.05;2231941;79;52436;-73
2023/04/20 12:33:56;;;;;;;;;;;;;;;20.14;60.41;101404.94;2256273;78;50650;-73
2023/04/20 12:36:57;;;;;;;;;;;;;;;20.14;60.59;101397.35;2256522;78;51330;-72
2023/04/20 12:39:59;;;;;;;;;;;;;;;20.15;60.87;101384.27;2288847;76;51624;-72
2023/04/20 12:43:00;;;;;;;;;;;;;;;20.15;60.78;101383.76;2227694;79;50428;-71
2023/04/20 12:46:02;;;;;;;;;;;;;;;20.19;60.74;101383.75;2256444;78;51525;-72
2023/04/20 12:49:04;;;;;;;;;;;;;;;20.23;60.73;101386.91;2289013;77;51569;-72
2023/04/20 12:52:06;;;;;;;;;;;;;;;20.23;60.65;101378.34;2261561;77;50803;-72
2023/04/20 12:55:08;;;;;;;;;;;;;;;20.25;60.68;101377.34;2232147;79;50386;-72
2023/04/20 12:58:10;;;;;;;;;;;;;;;20.25;60.65;101375.48;2222261;80;50372;-72
2023/04/20 13:01:11;;;;;;;;;;;;;;;20.24;60.69;101367.07;2202010;80;51606;-71
2023/04/20 13:04:14;;;;;;;;;;;;;;;20.21;60.70;101369.61;2201807;80;51432;-72
2023/04/20 13:07:16;;;;;;;;;;;;;;;20.21;60.95;101368.78;2202073;80;51588;-72
2023/04/20 13:10:17;;;;;;;;;;;;;;;20.18;61.02;101357.88;2185807;80;51469;-72
2023/04/20 13:13:19;;;;;;;;;;;;;;;20.21;61.01;101358.86;2202049;80;50710;-73
2023/04/20 13:16:20;;;;;;;;;;;;;;;20.23;61.14;101356.84;2222120;80;51457;-72
2023/04/20 13:19:22;;;;;;;;;;;;;;;20.26;61.05;101349.44;2202136;80;52348;-71
2023/04/20 13:22:24;;;;;;;;;;;;;;;20.28;60.99;101350.11;2213204;80;50416;-72
2023/04/20 13:25:26;;;;;;;;;;;;;;;20.28;61.00;101350.94;2208841;80;50433;-72
2023/04/20 13:28:28;;;;;;;;;;;;;;;20.27;61.03;101346.59;2222348;80;50698;-72
2023/04/20 13:31:30;;;;;;;;;;;;;;;20.25;61.10;101346.44;2197846;79;52410;-72
2023/04/20 13:34:32;;;;;;;;;;;;;;;20.21;61.11;101342.73;2202130;80;50979;-72
2023/04/20 13:37:34;;;;;;;;;;;;;;;20.18;61.36;101343.09;2202740;80;51546;-71
2023/04/20 13:40:35;;;;;;;;;;;;;;;20.14;61.51;101339.11;2202616;80;51553;-72
2023/04/20 13:43:37;;;;;;;;;;;;;;;20.15;61.58;101334.05;2202623;80;51039;-72
2023/04/20 13:46:38;;;;;;;;;;;;;;;20.18;61.73;101341.75;2241730;78;51391;-71
2023/04/20 13:49:40;;;;;;;;;;;;;;;20.25;61.58;101337.86;2258955;78;51507;-72
2023/04/20 13:52:42;;;;;;;;;;;;;;;20.26;61.72;101338.69;2226032;78;53450;-73
2023/04/20 13:55:43;;;;;;;;;;;;;;;20.33;61.33;101328.40;2206204;79;52698;-72
2023/04/20 13:58:45;;;;;;;;;;;;;;;20.32;61.30;101324.05;2225985;80;51414;-72
2023/04/20 14:01:46;;;;;;;;;;;;;;;20.37;61.18;101324.83;2226063;80;50318;-71
2023/04/20 14:04:48;;;;;;;;;;;;;;;20.36;61.16;101327.20;2226015;79;50236;-72
2023/04/20 14:07:49;;;;;;;;;;;;;;;20.34;61.21;101322.51;2201776;80;50706;-72
2023/04/20 14:10:51;;;;;;;;;;;;;;;20.29;61.29;101324.89;2222278;80;50719;-72
2023/04/20 14:13:53;;;;;;;;;;;;;;;20.25;61.37;101320.39;2222056;78;51452;-73
2023/04/20 14:16:54;;;;;;;;;;;;;;;20.22;61.65;101316.73;2256366;77;50737;-74
2023/04/20 14:19:56;;;;;;;;;;;;;;;20.23;61.72;101305.78;2200594;78;52393;-74
2023/04/20 14:22:57;;;;;;;;;;;;;;;20.23;61.76;101307.13;2216134;78;50721;-74
2023/04/20 14:25:59;;;;;;;;;;;;;;;20.27;61.69;101303.59;2201835;80;50611;-73
2023/04/20 14:29:01;;;;;;;;;;;;;;;20.30;61.62;101305.92;2222392;80;50381;-72
2023/04/20 14:32:03;;;;;;;;;;;;;;;20.30;61.53;101297.86;2204894;80;52430;-73
2023/04/20 14:35:05;;;;;;;;;;;;;;;20.30;61.52;101302.40;2199647;79;51802;-72
2023/04/20 14:38:07;;;;;;;;;;;;;;;20.29;61.53;101304.73;2204283;78;51703;-73
2023/04/20 14:41:09;;;;;;;;;;;;;;;20.25;61.55;101290.83;2202103;80;50253;-72
2023/04/20 14:44:10;;;;;;;;;;;;;;;20.24;61.95;101293.17;2212255;79;49663;-73
2023/04/20 14:47:12;;;;;;;;;;;;;;;20.21;62.07;101281.44;2232366;79;50639;-73
2023/04/20 14:50:13;;;;;;;;;;;;;;;20.26;61.91;101283.60;2226057;79;51256;-73
2023/04/20 14:53:15;;;;;;;;;;;;;;;20.28;61.78;101273.52;2245763;78;51496;-72
2023/04/20 14:56:17;;;;;;;;;;;;;;;20.29;61.86;101276.52;2205011;79;51735;-73
2023/04/20 14:59:18;;;;;;;;;;;;;;;20.32;61.88;101270.78;2206726;79;51401;-74
2023/04/20 15:02:20;;;;;;;;;;;;;;;20.33;61.66;101275.16;2262790;78;50601;-73
2023/04/20 15:05:22;;;;;;;;;;;;;;;20.31;61.62;101268.61;2259138;78;51548;-73
2023/04/20 15:08:24;;;;;;;;;;;;;;;20.29;61.63;101273.32;2236590;78;51191;-73
2023/04/20 15:11:26;;;;;;;;;;;;;;;20.27;61.64;101271.83;2247767;78;51591;-72
2023/04/20 15:14:28;;;;;;;;;;;;;;;20.26;61.63;101264.28;2221883;80;50766;-72
2023/04/20 15:17:29;;;;;;;;;;;;;;;20.22;61.81;101266.50;2201024;80;51876;-73
2023/04/20 15:20:31;;;;;;;;;;;;;;;20.21;61.99;101266.15;2202657;78;50998;-73
2023/04/20 15:23:32;;;;;;;;;;;;;;;20.22;61.99;101266.50;2219930;78;50214;-73
2023/04/20 15:26:34;;;;;;;;;;;;;;;20.25;61.98;101267.99;2260762;77;50135;-75
2023/04/20 15:29:36;;;;;;;;;;;;;;;20.28;61.86;101266.80;2259060;78;50259;-73
2023/04/20 15:32:38;;;;;;;;;;;;;;;20.29;61.81;101260.39;2213764;78;52470;-73
2023/04/20 15:35:40;;;;;;;;;;;;;;;20.31;61.85;101266.44;2237922;78;51509;-73